Time;durP1;ratioP1;P1;durP2;ratioP2;P2;SDS_P1;SDS_P2;PMS_P1;PMS_P2;Temp;Humidity;BMP_temperature;BMP_pressure;BME280_temperature;BME280_humidity;BME280_pressure;Samples;Min_cycle;Max_cycle;Signal;HPM_P1;HPM_P2
2024/01/25 00:01:18;;;;;;;21.63;6.43;;;;;;;;;;5113888;28;20229;-81
2024/01/25 00:03:46;;;;;;;23.03;6.47;;;;;;;;;;5113124;28;20236;-81
2024/01/25 00:06:13;;;;;;;20.40;6.17;;;;;;;;;;5113668;28;20285;-81
2024/01/25 00:08:40;;;;;;;27.87;6.20;;;;;;;;;;5112894;28;20220;-80
2024/01/25 00:11:09;;;;;;;25.07;5.63;;;;;;;;;;5113482;28;20212;-81
2024/01/25 00:13:38;;;;;;;19.50;5.13;;;;;;;;;;5113425;28;20275;-80
2024/01/25 00:16:06;;;;;;;20.80;5.43;;;;;;;;;;5113000;27;20197;-80
2024/01/25 00:18:33;;;;;;;19.27;5.27;;;;;;;;;;5112937;28;20190;-80
2024/01/25 00:21:00;;;;;;;22.97;5.27;;;;;;;;;;5113344;28;20263;-80
2024/01/25 00:23:27;;;;;;;21.33;5.17;;;;;;;;;;5112719;28;20200;-80
2024/01/25 00:25:57;;;;;;;20.37;5.43;;;;;;;;;;5112530;28;20776;-80
2024/01/25 00:28:25;;;;;;;18.90;5.13;;;;;;;;;;5113152;28;20201;-80
2024/01/25 00:30:53;;;;;;;23.07;5.27;;;;;;;;;;5113087;28;20213;-81
2024/01/25 00:33:20;;;;;;;21.73;5.57;;;;;;;;;;5112948;28;20719;-80
2024/01/25 00:35:48;;;;;;;16.20;5.00;;;;;;;;;;5112586;28;20244;-79
2024/01/25 00:38:15;;;;;;;20.37;4.90;;;;;;;;;;5112415;28;20805;-80
2024/01/25 00:40:43;;;;;;;17.33;5.07;;;;;;;;;;5112506;28;20263;-79
2024/01/25 00:43:10;;;;;;;24.87;5.80;;;;;;;;;;5112394;28;20246;-80
2024/01/25 00:45:38;;;;;;;21.77;5.13;;;;;;;;;;5112552;28;20274;-78
2024/01/25 00:48:07;;;;;;;21.10;4.97;;;;;;;;;;5112352;28;20237;-80
2024/01/25 00:50:35;;;;;;;26.83;5.33;;;;;;;;;;5112280;28;20194;-80
2024/01/25 00:53:02;;;;;;;18.23;5.53;;;;;;;;;;5112695;28;20198;-81
2024/01/25 00:55:30;;;;;;;22.60;5.00;;;;;;;;;;5112372;28;20280;-80
2024/01/25 00:57:57;;;;;;;23.30;4.77;;;;;;;;;;5112325;28;20225;-80
2024/01/25 01:00:25;;;;;;;22.20;4.77;;;;;;;;;;5112155;28;20302;-81
2024/01/25 01:02:52;;;;;;;17.47;4.73;;;;;;;;;;5112073;28;20982;-80
2024/01/25 01:05:21;;;;;;;19.50;4.70;;;;;;;;;;5111748;28;20190;-80
2024/01/25 01:07:49;;;;;;;19.67;4.27;;;;;;;;;;5112249;28;20321;-79
2024/01/25 01:10:16;;;;;;;22.33;4.57;;;;;;;;;;5112444;28;20316;-81
2024/01/25 01:12:43;;;;;;;15.53;4.57;;;;;;;;;;5111512;28;20757;-80
2024/01/25 01:15:11;;;;;;;19.60;4.27;;;;;;;;;;5112368;28;20208;-80
2024/01/25 01:17:38;;;;;;;23.87;4.07;;;;;;;;;;5111910;28;20313;-80
2024/01/25 01:20:05;;;;;;;21.50;4.57;;;;;;;;;;5111953;28;20284;-80
2024/01/25 01:22:34;;;;;;;17.80;4.00;;;;;;;;;;5112122;28;20243;-80
2024/01/25 01:25:01;;;;;;;19.87;4.50;;;;;;;;;;5111981;28;20193;-80
2024/01/25 01:27:28;;;;;;;24.50;4.57;;;;;;;;;;5111954;28;20629;-79
2024/01/25 01:29:55;;;;;;;18.30;4.27;;;;;;;;;;5111911;28;20320;-80
2024/01/25 01:32:22;;;;;;;19.07;4.23;;;;;;;;;;5111542;28;20769;-79
2024/01/25 01:34:50;;;;;;;15.43;4.20;;;;;;;;;;5111348;28;20196;-80
2024/01/25 01:37:17;;;;;;;17.57;4.47;;;;;;;;;;5110475;28;20686;-80
2024/01/25 01:39:46;;;;;;;15.43;3.90;;;;;;;;;;5111515;28;20276;-80
2024/01/25 01:42:13;;;;;;;18.97;4.47;;;;;;;;;;5111917;28;20286;-80
2024/01/25 01:44:40;;;;;;;20.60;4.53;;;;;;;;;;5111776;28;20194;-80
2024/01/25 01:47:08;;;;;;;14.60;4.43;;;;;;;;;;5112167;28;20631;-80
2024/01/25 01:49:36;;;;;;;14.97;4.33;;;;;;;;;;5111757;28;20324;-80
2024/01/25 01:52:03;;;;;;;27.20;5.33;;;;;;;;;;5111761;28;20658;-80
2024/01/25 01:54:30;;;;;;;24.90;5.10;;;;;;;;;;5111256;28;20621;-79
2024/01/25 01:56:59;;;;;;;21.80;5.23;;;;;;;;;;5111780;28;20281;-80
2024/01/25 01:59:28;;;;;;;26.07;5.63;;;;;;;;;;5111687;28;20197;-80
2024/01/25 02:01:55;;;;;;;19.40;4.40;;;;;;;;;;5111516;28;20713;-80
2024/01/25 02:04:22;;;;;;;17.47;4.97;;;;;;;;;;5111313;28;20677;-80
2024/01/25 02:06:50;;;;;;;16.27;5.07;;;;;;;;;;5111290;28;20230;-80
2024/01/25 02:09:17;;;;;;;17.23;4.90;;;;;;;;;;5111527;28;20288;-80
2024/01/25 02:11:44;;;;;;;18.87;4.87;;;;;;;;;;5111385;28;20194;-81
2024/01/25 02:14:13;;;;;;;21.40;5.43;;;;;;;;;;5111487;28;20665;-80
2024/01/25 02:16:40;;;;;;;15.63;4.87;;;;;;;;;;5111362;28;20280;-80
2024/01/25 02:19:07;;;;;;;19.73;5.07;;;;;;;;;;5111255;28;20281;-80
2024/01/25 02:21:34;;;;;;;16.50;4.93;;;;;;;;;;5111502;28;20225;-80
2024/01/25 02:24:03;;;;;;;23.67;5.20;;;;;;;;;;5111692;28;20226;-80
2024/01/25 02:26:30;;;;;;;18.30;5.03;;;;;;;;;;5110954;28;20194;-80
2024/01/25 02:28:57;;;;;;;19.87;5.03;;;;;;;;;;5111353;28;20684;-80
2024/01/25 02:31:24;;;;;;;15.83;4.77;;;;;;;;;;5111382;28;20198;-80
2024/01/25 02:33:52;;;;;;;26.17;5.20;;;;;;;;;;5110952;28;20281;-80
2024/01/25 02:36:19;;;;;;;21.93;5.37;;;;;;;;;;5111268;28;20225;-80
2024/01/25 02:38:46;;;;;;;20.20;5.93;;;;;;;;;;5111346;28;20289;-80
2024/01/25 02:41:15;;;;;;;23.23;5.83;;;;;;;;;;5111311;28;20253;-80
2024/01/25 02:43:42;;;;;;;19.13;6.03;;;;;;;;;;5110850;28;20254;-80
2024/01/25 02:46:09;;;;;;;21.07;5.77;;;;;;;;;;5111436;28;20198;-79
2024/01/25 02:48:37;;;;;;;19.53;5.50;;;;;;;;;;5112802;28;20284;-80
2024/01/25 02:51:04;;;;;;;21.60;5.53;;;;;;;;;;5114344;27;20722;-80
2024/01/25 02:53:31;;;;;;;23.03;5.10;;;;;;;;;;5114416;28;20233;-80
2024/01/25 02:55:58;;;;;;;19.73;5.93;;;;;;;;;;5114688;28;20204;-80
2024/01/25 02:58:27;;;;;;;15.37;5.63;;;;;;;;;;5114473;28;20198;-79
2024/01/25 03:00:54;;;;;;;18.00;5.60;;;;;;;;;;5114211;27;20304;-80
2024/01/25 03:03:23;;;;;;;24.83;6.37;;;;;;;;;;5114600;28;20562;-79
2024/01/25 03:05:50;;;;;;;16.70;6.27;;;;;;;;;;5114322;28;20247;-80
2024/01/25 03:08:18;;;;;;;26.70;6.80;;;;;;;;;;5115030;27;20225;-81
2024/01/25 03:10:45;;;;;;;17.77;5.70;;;;;;;;;;5114481;28;20204;-79
2024/01/25 03:13:12;;;;;;;26.87;6.63;;;;;;;;;;5113980;28;20317;-80
2024/01/25 03:15:41;;;;;;;27.33;6.63;;;;;;;;;;5114019;27;20645;-81
2024/01/25 03:18:08;;;;;;;23.53;7.07;;;;;;;;;;5115055;28;20200;-81
2024/01/25 03:20:35;;;;;;;20.10;6.80;;;;;;;;;;5114133;28;20280;-80
2024/01/25 03:23:02;;;;;;;27.47;7.27;;;;;;;;;;5114069;28;20658;-79
2024/01/25 03:25:31;;;;;;;22.47;6.47;;;;;;;;;;5113895;27;20616;-80
2024/01/25 03:27:58;;;;;;;24.50;6.63;;;;;;;;;;5106187;28;20198;-80
2024/01/25 03:30:25;;;;;;;27.07;6.40;;;;;;;;;;5096938;28;20285;-80
2024/01/25 03:32:54;;;;;;;18.87;6.07;;;;;;;;;;5093896;28;20283;-79
2024/01/25 03:35:21;;;;;;;20.20;5.53;;;;;;;;;;5093553;28;20203;-80
2024/01/25 03:37:48;;;;;;;20.33;6.17;;;;;;;;;;5110409;28;20229;-79
2024/01/25 03:40:15;;;;;;;18.23;6.13;;;;;;;;;;5113980;28;20280;-80
2024/01/25 03:42:42;;;;;;;19.37;5.83;;;;;;;;;;5113415;28;20320;-80
2024/01/25 03:45:10;;;;;;;22.70;5.87;;;;;;;;;;5113958;28;20284;-79
2024/01/25 03:47:37;;;;;;;19.53;5.13;;;;;;;;;;5113756;28;20288;-80
2024/01/25 03:50:06;;;;;;;23.23;5.63;;;;;;;;;;5113966;28;20200;-80
2024/01/25 03:52:33;;;;;;;22.80;5.60;;;;;;;;;;5113590;28;20231;-80
2024/01/25 03:55:00;;;;;;;17.10;5.20;;;;;;;;;;5113207;28;20197;-80
2024/01/25 03:57:27;;;;;;;28.97;5.50;;;;;;;;;;5113949;28;20296;-79
2024/01/25 03:59:55;;;;;;;19.87;4.90;;;;;;;;;;5112785;28;20284;-80
2024/01/25 04:02:22;;;;;;;21.73;5.23;;;;;;;;;;5113622;28;20324;-80
2024/01/25 04:04:49;;;;;;;16.87;5.23;;;;;;;;;;5113248;28;20198;-80
2024/01/25 04:07:18;;;;;;;23.30;5.30;;;;;;;;;;5113493;28;20205;-81
2024/01/25 04:09:45;;;;;;;16.63;5.27;;;;;;;;;;5113640;28;20198;-80
2024/01/25 04:12:13;;;;;;;23.57;5.33;;;;;;;;;;5113104;28;20280;-80
2024/01/25 04:14:40;;;;;;;20.33;5.80;;;;;;;;;;5112970;28;20280;-80
2024/01/25 04:17:07;;;;;;;21.00;5.03;;;;;;;;;;5113322;28;20267;-80
2024/01/25 04:19:34;;;;;;;16.13;4.67;;;;;;;;;;5113091;28;20657;-80
2024/01/25 04:22:01;;;;;;;17.63;4.37;;;;;;;;;;5112816;27;20229;-80
2024/01/25 04:24:30;;;;;;;18.17;4.67;;;;;;;;;;5113189;28;20198;-79
2024/01/25 04:26:57;;;;;;;20.97;4.47;;;;;;;;;;5113388;28;20281;-78
2024/01/25 04:29:24;;;;;;;13.37;4.20;;;;;;;;;;5112682;28;20572;-80
2024/01/25 04:31:51;;;;;;;16.13;4.60;;;;;;;;;;5112864;28;20660;-80
2024/01/25 04:34:19;;;;;;;17.57;4.03;;;;;;;;;;5112880;28;20716;-79
2024/01/25 04:36:46;;;;;;;18.60;4.00;;;;;;;;;;5112978;28;20668;-80
2024/01/25 04:39:14;;;;;;;17.47;3.93;;;;;;;;;;5112674;28;20570;-80
2024/01/25 04:41:42;;;;;;;14.37;3.73;;;;;;;;;;5112632;28;20711;-80
2024/01/25 04:44:09;;;;;;;15.67;4.27;;;;;;;;;;5112837;28;20569;-79
2024/01/25 04:46:37;;;;;;;16.87;3.57;;;;;;;;;;5112709;28;20289;-80
2024/01/25 04:49:04;;;;;;;15.23;3.47;;;;;;;;;;5112490;28;20194;-80
2024/01/25 04:51:32;;;;;;;17.73;3.73;;;;;;;;;;5112929;28;20687;-80
2024/01/25 04:53:59;;;;;;;13.37;4.20;;;;;;;;;;5113065;28;20190;-80
2024/01/25 04:56:26;;;;;;;13.97;4.00;;;;;;;;;;5112680;28;20225;-81
2024/01/25 04:58:55;;;;;;;14.00;4.00;;;;;;;;;;5112262;28;20224;-80
2024/01/25 05:01:22;;;;;;;17.00;4.20;;;;;;;;;;5112245;28;20277;-81
2024/01/25 05:03:49;;;;;;;13.53;4.10;;;;;;;;;;5112403;28;20247;-79
2024/01/25 05:06:16;;;;;;;18.40;3.93;;;;;;;;;;5112575;28;20198;-80
2024/01/25 05:08:44;;;;;;;17.47;3.90;;;;;;;;;;5112250;28;20236;-79
2024/01/25 05:11:11;;;;;;;11.43;3.60;;;;;;;;;;5111692;28;20271;-79
2024/01/25 05:13:38;;;;;;;12.00;3.37;;;;;;;;;;5111511;28;20225;-80
2024/01/25 05:16:08;;;;;;;12.23;3.37;;;;;;;;;;5111951;28;20198;-79
2024/01/25 05:18:35;;;;;;;19.30;4.30;;;;;;;;;;5111258;28;20209;-80
2024/01/25 05:21:02;;;;;;;18.63;4.37;;;;;;;;;;5112190;28;20202;-79
2024/01/25 05:23:29;;;;;;;16.27;4.40;;;;;;;;;;5112111;28;20226;-80
2024/01/25 05:25:56;;;;;;;12.80;3.63;;;;;;;;;;5111641;28;20233;-80
2024/01/25 05:28:24;;;;;;;14.97;4.13;;;;;;;;;;5112209;28;20281;-80
2024/01/25 05:30:51;;;;;;;17.00;4.20;;;;;;;;;;5112119;28;20198;-80
2024/01/25 05:33:20;;;;;;;14.70;4.47;;;;;;;;;;5111793;28;20293;-80
2024/01/25 05:35:47;;;;;;;16.20;4.00;;;;;;;;;;5111849;28;20288;-80
2024/01/25 05:38:14;;;;;;;11.57;4.00;;;;;;;;;;5111790;28;20229;-79
2024/01/25 05:40:41;;;;;;;15.67;4.00;;;;;;;;;;5111938;28;20198;-80
2024/01/25 05:43:09;;;;;;;16.27;4.50;;;;;;;;;;5111177;28;20233;-80
2024/01/25 05:45:36;;;;;;;16.33;4.53;;;;;;;;;;5111713;28;20229;-79
2024/01/25 05:48:03;;;;;;;16.67;4.53;;;;;;;;;;5112159;28;20635;-80
2024/01/25 05:50:33;;;;;;;15.50;4.20;;;;;;;;;;5111995;28;20285;-80
2024/01/25 05:53:00;;;;;;;13.70;4.27;;;;;;;;;;5111252;28;20280;-80
2024/01/25 05:55:27;;;;;;;18.60;4.37;;;;;;;;;;5111707;28;20213;-79
2024/01/25 05:57:54;;;;;;;11.10;3.77;;;;;;;;;;5111821;28;20276;-79
2024/01/25 06:00:21;;;;;;;13.77;3.93;;;;;;;;;;5111469;28;20204;-79
2024/01/25 06:02:49;;;;;;;11.80;3.90;;;;;;;;;;5111555;28;20252;-80
2024/01/25 06:05:16;;;;;;;14.20;4.03;;;;;;;;;;5111679;28;20204;-79
2024/01/25 06:07:44;;;;;;;13.77;4.50;;;;;;;;;;5111387;28;20240;-79
2024/01/25 06:10:12;;;;;;;15.30;4.50;;;;;;;;;;5111486;28;20285;-81
2024/01/25 06:12:41;;;;;;;15.03;3.90;;;;;;;;;;5111261;28;20229;-80
2024/01/25 06:15:09;;;;;;;10.03;3.97;;;;;;;;;;5111689;28;20723;-80
2024/01/25 06:17:36;;;;;;;16.53;4.13;;;;;;;;;;5111522;28;20225;-80
2024/01/25 06:20:04;;;;;;;14.30;3.90;;;;;;;;;;5111536;28;20288;-81
2024/01/25 06:22:31;;;;;;;13.97;3.90;;;;;;;;;;5111201;28;20229;-82
2024/01/25 06:25:00;;;;;;;13.33;3.53;;;;;;;;;;5114932;28;20681;-81
2024/01/25 06:27:27;;;;;;;13.97;3.40;;;;;;;;;;5115039;28;20197;-80
2024/01/25 06:29:54;;;;;;;12.60;3.53;;;;;;;;;;5115430;27;20276;-81
2024/01/25 06:32:21;;;;;;;13.60;4.10;;;;;;;;;;5115106;28;20240;-80
2024/01/25 06:34:49;;;;;;;15.53;4.67;;;;;;;;;;5114992;28;20217;-81
2024/01/25 06:37:18;;;;;;;13.17;4.13;;;;;;;;;;5115493;28;20222;-81
2024/01/25 06:39:45;;;;;;;15.27;3.90;;;;;;;;;;5114891;28;20270;-82
2024/01/25 06:42:14;;;;;;;18.33;4.30;;;;;;;;;;5113219;28;20221;-83
2024/01/25 06:44:41;;;;;;;17.33;4.30;;;;;;;;;;5115125;28;20578;-82
2024/01/25 06:47:08;;;;;;;12.80;3.90;;;;;;;;;;5111309;28;20304;-82
2024/01/25 06:49:35;;;;;;;13.13;4.27;;;;;;;;;;5087868;28;20289;-82
2024/01/25 06:52:03;;;;;;;11.20;3.97;;;;;;;;;;5104146;28;20288;-81
2024/01/25 06:54:31;;;;;;;13.27;4.63;;;;;;;;;;5114051;28;20198;-83
2024/01/25 06:56:58;;;;;;;12.17;4.00;;;;;;;;;;5114725;28;20647;-82
2024/01/25 06:59:26;;;;;;;20.83;4.93;;;;;;;;;;5114323;28;20726;-82
2024/01/25 07:01:53;;;;;;;17.03;4.77;;;;;;;;;;5114110;28;20237;-82
2024/01/25 07:04:21;;;;;;;16.67;5.00;;;;;;;;;;5114306;28;20276;-82
2024/01/25 07:06:48;;;;;;;11.63;4.97;;;;;;;;;;5114290;27;20194;-82
2024/01/25 07:09:15;;;;;;;20.07;5.30;;;;;;;;;;5114007;28;20281;-82
2024/01/25 07:11:42;;;;;;;16.13;5.50;;;;;;;;;;5114172;28;20197;-82
2024/01/25 07:14:09;;;;;;;14.03;5.40;;;;;;;;;;5113875;28;20265;-81
2024/01/25 07:16:38;;;;;;;15.23;5.33;;;;;;;;;;5114183;28;20298;-82
2024/01/25 07:19:05;;;;;;;13.47;5.67;;;;;;;;;;5114200;28;20276;-82
2024/01/25 07:21:32;;;;;;;13.40;5.73;;;;;;;;;;5114140;27;20292;-82
2024/01/25 07:24:00;;;;;;;15.17;5.97;;;;;;;;;;5113585;28;20225;-82
2024/01/25 07:26:28;;;;;;;14.00;6.07;;;;;;;;;;5114016;28;20289;-82
2024/01/25 07:28:57;;;;;;;15.47;6.20;;;;;;;;;;5114119;28;20281;-81
2024/01/25 07:31:25;;;;;;;15.27;6.40;;;;;;;;;;5113535;27;20670;-82
2024/01/25 07:33:53;;;;;;;16.33;7.07;;;;;;;;;;5113539;28;20284;-82
2024/01/25 07:36:21;;;;;;;16.77;7.13;;;;;;;;;;5112583;28;20198;-81
2024/01/25 07:38:48;;;;;;;14.60;6.97;;;;;;;;;;5113277;28;20672;-82
2024/01/25 07:41:15;;;;;;;17.87;7.27;;;;;;;;;;5113646;28;20194;-82
2024/01/25 07:43:43;;;;;;;17.03;7.80;;;;;;;;;;5113698;28;20663;-82
2024/01/25 07:46:10;;;;;;;18.73;7.43;;;;;;;;;;5113478;28;20197;-82
2024/01/25 07:48:37;;;;;;;12.97;7.17;;;;;;;;;;5113763;28;20288;-82
2024/01/25 07:51:12;;;;;;;18.30;7.83;;;;;;;;;;5112416;28;20205;-81
2024/01/25 07:53:39;;;;;;;19.53;7.40;;;;;;;;;;5113316;27;20567;-82
2024/01/25 07:56:08;;;;;;;18.20;7.90;;;;;;;;;;5113591;27;20964;-82
2024/01/25 07:58:36;;;;;;;15.53;8.37;;;;;;;;;;5113163;28;20731;-82
2024/01/25 08:01:04;;;;;;;17.00;8.60;;;;;;;;;;5113430;28;20285;-82
2024/01/25 08:03:32;;;;;;;15.33;8.33;;;;;;;;;;5113308;28;20221;-83
2024/01/25 08:05:59;;;;;;;19.83;8.47;;;;;;;;;;5113197;28;20562;-83
2024/01/25 08:08:28;;;;;;;19.07;8.60;;;;;;;;;;5112739;28;20284;-82
2024/01/25 08:10:55;;;;;;;18.17;8.57;;;;;;;;;;5113216;28;20233;-82
2024/01/25 08:13:22;;;;;;;18.50;8.23;;;;;;;;;;5112827;28;20718;-82
2024/01/25 08:15:50;;;;;;;19.13;8.60;;;;;;;;;;5113020;28;20283;-81
2024/01/25 08:18:18;;;;;;;19.23;8.93;;;;;;;;;;5113205;28;20221;-82
2024/01/25 08:20:46;;;;;;;19.27;9.37;;;;;;;;;;5112593;27;20276;-82
2024/01/25 08:23:14;;;;;;;18.87;8.80;;;;;;;;;;5113098;28;20232;-81
2024/01/25 08:25:42;;;;;;;21.40;9.47;;;;;;;;;;5112680;28;20208;-81
2024/01/25 08:28:10;;;;;;;17.23;9.30;;;;;;;;;;5113037;28;20277;-82
2024/01/25 08:30:37;;;;;;;19.20;9.00;;;;;;;;;;5113092;28;20240;-80
2024/01/25 08:33:04;;;;;;;17.70;8.43;;;;;;;;;;5112840;28;20241;-81
2024/01/25 08:35:31;;;;;;;21.27;8.67;;;;;;;;;;5112611;28;20288;-82
2024/01/25 08:37:58;;;;;;;15.40;8.30;;;;;;;;;;5112695;28;20225;-82
2024/01/25 08:40:25;;;;;;;15.53;8.47;;;;;;;;;;5112711;28;20222;-81
2024/01/25 08:42:54;;;;;;;15.83;8.40;;;;;;;;;;5112206;27;21124;-81
2024/01/25 08:45:21;;;;;;;18.00;8.50;;;;;;;;;;5112867;28;20236;-82
2024/01/25 08:47:49;;;;;;;17.17;8.60;;;;;;;;;;5112416;28;20221;-82
2024/01/25 08:50:16;;;;;;;17.33;8.07;;;;;;;;;;5112012;28;20565;-82
2024/01/25 08:52:43;;;;;;;13.83;7.23;;;;;;;;;;5112020;28;20197;-82
2024/01/25 08:55:11;;;;;;;14.93;7.30;;;;;;;;;;5112125;28;20266;-82
2024/01/25 08:57:39;;;;;;;16.37;7.17;;;;;;;;;;5112227;28;20280;-82
2024/01/25 09:00:10;;;;;;;14.03;7.20;;;;;;;;;;5112173;28;20202;-82
2024/01/25 09:02:37;;;;;;;13.37;6.93;;;;;;;;;;5111604;28;20736;-81
2024/01/25 09:05:05;;;;;;;15.03;7.10;;;;;;;;;;5111853;28;20652;-83
2024/01/25 09:07:32;;;;;;;16.27;7.00;;;;;;;;;;5112154;28;20567;-82
2024/01/25 09:09:59;;;;;;;15.13;6.93;;;;;;;;;;5111690;28;20681;-81
2024/01/25 09:12:26;;;;;;;14.47;6.73;;;;;;;;;;5111912;28;20193;-81
2024/01/25 09:14:53;;;;;;;9.67;6.17;;;;;;;;;;5111810;28;20251;-82
2024/01/25 09:17:22;;;;;;;10.30;6.17;;;;;;;;;;5111679;28;20255;-82
2024/01/25 09:19:50;;;;;;;13.57;6.63;;;;;;;;;;5111390;28;20190;-82
2024/01/25 09:22:19;;;;;;;12.50;5.87;;;;;;;;;;5111435;28;20194;-82
2024/01/25 09:24:46;;;;;;;11.00;6.53;;;;;;;;;;5112116;28;20225;-82
2024/01/25 09:27:13;;;;;;;8.00;5.53;;;;;;;;;;5111895;28;20220;-81
2024/01/25 09:29:41;;;;;;;10.50;6.37;;;;;;;;;;5111646;28;20222;-82
2024/01/25 09:32:08;;;;;;;13.50;6.07;;;;;;;;;;5111762;28;20280;-81
2024/01/25 09:34:37;;;;;;;9.57;5.63;;;;;;;;;;5111064;28;20292;-81
2024/01/25 09:37:05;;;;;;;10.40;5.97;;;;;;;;;;5111537;28;20234;-81
2024/01/25 09:39:32;;;;;;;9.83;5.50;;;;;;;;;;5111763;28;20190;-82
2024/01/25 09:42:00;;;;;;;10.77;5.53;;;;;;;;;;5111680;28;20197;-82
2024/01/25 09:44:27;;;;;;;9.63;4.83;;;;;;;;;;5111968;28;20246;-83
2024/01/25 09:46:55;;;;;;;11.30;5.17;;;;;;;;;;5111364;28;20563;-83
2024/01/25 09:49:23;;;;;;;8.37;5.00;;;;;;;;;;5111660;28;20306;-82
2024/01/25 09:51:52;;;;;;;8.17;4.73;;;;;;;;;;5111214;28;20200;-82
2024/01/25 09:54:20;;;;;;;7.93;4.40;;;;;;;;;;5111161;28;20735;-82
2024/01/25 09:56:47;;;;;;;10.13;4.67;;;;;;;;;;5111589;28;20281;-82
2024/01/25 09:59:15;;;;;;;11.77;4.83;;;;;;;;;;5114247;28;20196;-82
2024/01/25 10:01:42;;;;;;;7.57;4.50;;;;;;;;;;5115590;28;20198;-82
2024/01/25 10:04:09;;;;;;;7.30;4.10;;;;;;;;;;5115740;28;20324;-82
2024/01/25 10:06:37;;;;;;;10.17;4.20;;;;;;;;;;5115403;28;20284;-80
2024/01/25 10:09:09;;;;;;;8.93;4.60;;;;;;;;;;5115224;28;20221;-81
2024/01/25 10:11:37;;;;;;;8.53;4.13;;;;;;;;;;5116039;28;20200;-82
2024/01/25 10:14:04;;;;;;;5.90;3.97;;;;;;;;;;5114962;28;20229;-83
2024/01/25 10:16:32;;;;;;;9.67;4.67;;;;;;;;;;5115015;28;20224;-81
2024/01/25 10:18:59;;;;;;;8.27;4.63;;;;;;;;;;5115390;28;20202;-83
2024/01/25 10:21:27;;;;;;;10.87;4.30;;;;;;;;;;5115454;28;20246;-82
2024/01/25 10:23:57;;;;;;;8.73;4.43;;;;;;;;;;5115169;28;20270;-84
2024/01/25 10:26:28;;;;;;;9.50;4.53;;;;;;;;;;5114914;28;20229;-83
2024/01/25 10:28:55;;;;;;;7.50;4.27;;;;;;;;;;5115319;27;20198;-80
2024/01/25 10:31:25;;;;;;;7.67;4.67;;;;;;;;;;5114433;28;20233;-81
2024/01/25 10:33:54;;;;;;;5.83;3.60;;;;;;;;;;5115402;28;20202;-81
2024/01/25 10:36:22;;;;;;;6.00;3.70;;;;;;;;;;5114344;28;20198;-80
2024/01/25 10:38:49;;;;;;;6.10;3.27;;;;;;;;;;5112843;28;20281;-82
2024/01/25 10:41:17;;;;;;;5.17;3.07;;;;;;;;;;5114834;28;20247;-82
2024/01/25 10:43:46;;;;;;;7.57;3.83;;;;;;;;;;5114940;28;20312;-81
2024/01/25 10:46:13;;;;;;;9.07;3.43;;;;;;;;;;5114562;28;20200;-81
2024/01/25 10:48:41;;;;;;;4.43;2.87;;;;;;;;;;5115122;28;20293;-79
2024/01/25 10:51:08;;;;;;;5.97;3.07;;;;;;;;;;5114632;28;20198;-80
2024/01/25 10:53:36;;;;;;;4.23;3.10;;;;;;;;;;5113918;28;20225;-79
2024/01/25 10:56:04;;;;;;;5.20;3.20;;;;;;;;;;5114270;28;20221;-82
2024/01/25 10:58:35;;;;;;;6.30;3.37;;;;;;;;;;5114372;28;20212;-82
2024/01/25 11:01:04;;;;;;;8.37;3.90;;;;;;;;;;5111365;27;20194;-81
2024/01/25 11:03:31;;;;;;;8.43;4.57;;;;;;;;;;5113897;28;20217;-81
2024/01/25 11:06:08;;;;;;;7.40;4.07;;;;;;;;;;5113705;28;20202;-79
2024/01/25 11:08:37;;;;;;;7.37;3.87;;;;;;;;;;5112032;28;20185;-80
2024/01/25 11:11:05;;;;;;;7.63;4.07;;;;;;;;;;5113125;28;20190;-79
2024/01/25 11:13:33;;;;;;;6.43;3.67;;;;;;;;;;5110215;27;20233;-80
2024/01/25 11:16:00;;;;;;;8.37;5.17;;;;;;;;;;5113483;28;20276;-80
2024/01/25 11:18:29;;;;;;;8.23;4.60;;;;;;;;;;5113678;28;20276;-80
2024/01/25 11:21:02;;;;;;;7.23;3.77;;;;;;;;;;5113812;28;20254;-80
2024/01/25 11:23:33;;;;;;;7.73;4.00;;;;;;;;;;5114163;28;20213;-78
2024/01/25 11:26:00;;;;;;;6.70;4.07;;;;;;;;;;5095767;28;20196;-80
2024/01/25 11:28:27;;;;;;;7.10;4.17;;;;;;;;;;5113440;28;20178;-80
2024/01/25 11:30:55;;;;;;;8.33;4.33;;;;;;;;;;5113811;28;20225;-80
2024/01/25 11:33:22;;;;;;;8.47;4.00;;;;;;;;;;5113621;28;20189;-79
2024/01/25 11:35:57;;;;;;;12.23;5.40;;;;;;;;;;5114114;28;20201;-80
2024/01/25 11:38:24;;;;;;;9.23;4.33;;;;;;;;;;5109727;28;20284;-78
2024/01/25 11:40:51;;;;;;;9.30;4.77;;;;;;;;;;5113339;28;20646;-81
2024/01/25 11:43:18;;;;;;;9.57;4.60;;;;;;;;;;5113010;28;20736;-79
2024/01/25 11:45:46;;;;;;;8.27;4.77;;;;;;;;;;5113727;28;20591;-79
2024/01/25 11:48:13;;;;;;;9.03;5.40;;;;;;;;;;5113560;28;20217;-79
2024/01/25 11:50:40;;;;;;;7.77;5.13;;;;;;;;;;5112622;28;20687;-80
2024/01/25 11:53:09;;;;;;;11.97;5.27;;;;;;;;;;5113402;28;20193;-77
2024/01/25 11:55:36;;;;;;;8.10;4.97;;;;;;;;;;5113391;28;20685;-79
2024/01/25 11:58:04;;;;;;;8.50;5.30;;;;;;;;;;5113203;28;20235;-81
2024/01/25 12:00:31;;;;;;;10.47;4.87;;;;;;;;;;5113541;28;20224;-80
2024/01/25 12:02:58;;;;;;;12.60;5.27;;;;;;;;;;5113097;28;20733;-79
2024/01/25 12:05:25;;;;;;;9.83;5.23;;;;;;;;;;5113142;28;20725;-79
2024/01/25 12:07:53;;;;;;;10.20;5.07;;;;;;;;;;5113267;28;20236;-79
2024/01/25 12:10:22;;;;;;;12.13;4.87;;;;;;;;;;5113381;28;20274;-81
2024/01/25 12:12:50;;;;;;;9.87;4.87;;;;;;;;;;5112913;28;20252;-80
2024/01/25 12:15:17;;;;;;;8.30;5.00;;;;;;;;;;5113063;28;20280;-79
2024/01/25 12:17:44;;;;;;;10.03;5.23;;;;;;;;;;5112930;28;20574;-79
2024/01/25 12:20:13;;;;;;;8.33;4.80;;;;;;;;;;5112872;28;20657;-80
2024/01/25 12:22:40;;;;;;;7.27;4.63;;;;;;;;;;5112207;28;20229;-79
2024/01/25 12:25:12;;;;;;;9.80;4.47;;;;;;;;;;5112656;28;20317;-79
2024/01/25 12:27:42;;;;;;;6.57;3.80;;;;;;;;;;5112617;28;20214;-80
2024/01/25 12:30:09;;;;;;;8.67;4.23;;;;;;;;;;5112991;28;20246;-79
2024/01/25 12:32:36;;;;;;;8.40;4.60;;;;;;;;;;5112422;28;20200;-79
2024/01/25 12:35:04;;;;;;;10.50;4.07;;;;;;;;;;5113166;28;20221;-79
2024/01/25 12:37:31;;;;;;;6.80;4.27;;;;;;;;;;5112733;28;20627;-80
2024/01/25 12:39:58;;;;;;;11.10;4.33;;;;;;;;;;5112525;28;20198;-78
2024/01/25 12:42:26;;;;;;;6.60;4.07;;;;;;;;;;5112202;28;20273;-76
2024/01/25 12:44:55;;;;;;;7.37;3.83;;;;;;;;;;5112450;27;20816;-78
2024/01/25 12:47:22;;;;;;;6.83;4.10;;;;;;;;;;5112681;28;20240;-77
2024/01/25 12:49:49;;;;;;;10.70;4.83;;;;;;;;;;5112121;28;20722;-77
2024/01/25 12:52:17;;;;;;;8.73;4.53;;;;;;;;;;5112112;28;20190;-80
2024/01/25 12:54:45;;;;;;;11.83;5.23;;;;;;;;;;5112527;28;20638;-79
2024/01/25 12:57:12;;;;;;;10.10;5.27;;;;;;;;;;5112012;28;20217;-80
2024/01/25 12:59:39;;;;;;;12.27;6.07;;;;;;;;;;5112181;28;20282;-79
2024/01/25 13:02:08;;;;;;;10.77;5.40;;;;;;;;;;5112184;28;20662;-80
2024/01/25 13:04:36;;;;;;;11.97;5.50;;;;;;;;;;5111860;28;20316;-79
2024/01/25 13:07:03;;;;;;;13.13;5.73;;;;;;;;;;5112276;28;20229;-80
2024/01/25 13:09:33;;;;;;;12.33;6.20;;;;;;;;;;5112241;28;20285;-79
2024/01/25 13:12:00;;;;;;;10.47;5.60;;;;;;;;;;5111499;28;20289;-79
2024/01/25 13:14:27;;;;;;;12.83;6.00;;;;;;;;;;5111876;28;20237;-79
2024/01/25 13:16:54;;;;;;;13.00;6.53;;;;;;;;;;5111969;28;20189;-79
2024/01/25 13:19:23;;;;;;;9.97;5.93;;;;;;;;;;5112054;27;20313;-80
2024/01/25 13:21:50;;;;;;;14.00;6.73;;;;;;;;;;5111696;28;20198;-80
2024/01/25 13:24:17;;;;;;;15.17;7.43;;;;;;;;;;5111841;28;20316;-79
2024/01/25 13:26:45;;;;;;;13.93;7.10;;;;;;;;;;5111981;28;20200;-79
2024/01/25 13:29:12;;;;;;;15.93;7.00;;;;;;;;;;5111638;28;20613;-79
2024/01/25 13:31:40;;;;;;;11.93;8.07;;;;;;;;;;5111669;28;20672;-80
2024/01/25 13:34:07;;;;;;;17.20;7.80;;;;;;;;;;5110946;28;20729;-81
2024/01/25 13:36:36;;;;;;;14.97;8.03;;;;;;;;;;5111544;28;20201;-77
2024/01/25 13:39:03;;;;;;;15.70;7.07;;;;;;;;;;5111603;28;20334;-78
2024/01/25 13:41:30;;;;;;;12.77;7.40;;;;;;;;;;5108863;28;20205;-77
2024/01/25 13:43:58;;;;;;;14.80;7.90;;;;;;;;;;5111268;28;20203;-78
2024/01/25 13:46:25;;;;;;;17.87;9.17;;;;;;;;;;5110497;28;20312;-78
2024/01/25 13:48:52;;;;;;;20.60;9.80;;;;;;;;;;5111603;28;20292;-82
2024/01/25 13:51:19;;;;;;;19.70;9.17;;;;;;;;;;5110809;28;20197;-81
2024/01/25 13:53:49;;;;;;;17.40;8.50;;;;;;;;;;5110880;28;20194;-79
2024/01/25 13:56:16;;;;;;;22.93;9.87;;;;;;;;;;5110651;28;20563;-79
2024/01/25 13:58:43;;;;;;;18.70;8.40;;;;;;;;;;5110485;28;20196;-78
2024/01/25 14:01:10;;;;;;;18.80;9.33;;;;;;;;;;5109968;28;20654;-79
2024/01/25 14:03:38;;;;;;;19.03;9.20;;;;;;;;;;5111460;28;20587;-78
2024/01/25 14:06:05;;;;;;;15.10;7.13;;;;;;;;;;5110615;28;20340;-78
2024/01/25 14:08:32;;;;;;;19.63;9.00;;;;;;;;;;5111419;28;20221;-79
2024/01/25 14:11:01;;;;;;;21.80;11.13;;;;;;;;;;5110693;28;20248;-80
2024/01/25 14:13:28;;;;;;;19.70;10.80;;;;;;;;;;5111020;28;20229;-79
2024/01/25 14:15:55;;;;;;;20.83;9.40;;;;;;;;;;5111222;28;20644;-77
2024/01/25 14:18:22;;;;;;;22.73;9.80;;;;;;;;;;5111352;28;20220;-79
2024/01/25 14:20:49;;;;;;;13.33;8.40;;;;;;;;;;5110566;28;20237;-79
2024/01/25 14:23:17;;;;;;;17.60;8.97;;;;;;;;;;5110808;28;20240;-78
2024/01/25 14:25:45;;;;;;;17.33;8.77;;;;;;;;;;5111196;28;20324;-79
2024/01/25 14:28:13;;;;;;;15.43;8.37;;;;;;;;;;5111361;28;20204;-78
2024/01/25 14:30:41;;;;;;;19.88;9.55;;;;;;;;;;5111076;28;20631;-78
2024/01/25 14:33:08;;;;;;;15.60;10.63;;;;;;;;;;5111021;28;20665;-79
2024/01/25 14:35:35;;;;;;;18.77;12.93;;;;;;;;;;5111167;28;20201;-79